sensor_id;sensor_type;location;lat;lon;timestamp;P1;durP1;ratioP1;P2;durP2;ratioP2
72037;SDS011;59900;50.788;12.904;2023-08-17T00:02:10;16.05;;;10.32;;
72037;SDS011;59900;50.788;12.904;2023-08-17T00:04:35;14.40;;;9.63;;
72037;SDS011;59900;50.788;12.904;2023-08-17T00:07:01;14.10;;;9.27;;
72037;SDS011;59900;50.788;12.904;2023-08-17T00:09:26;17.08;;;9.32;;
72037;SDS011;59900;50.788;12.904;2023-08-17T00:11:51;13.87;;;9.80;;
72037;SDS011;59900;50.788;12.904;2023-08-17T00:14:16;14.90;;;9.63;;
72037;SDS011;59900;50.788;12.904;2023-08-17T00:16:42;13.37;;;9.63;;
72037;SDS011;59900;50.788;12.904;2023-08-17T00:19:07;13.67;;;9.40;;
72037;SDS011;59900;50.788;12.904;2023-08-17T00:21:32;15.03;;;9.63;;
72037;SDS011;59900;50.788;12.904;2023-08-17T00:23:57;15.63;;;9.40;;
72037;SDS011;59900;50.788;12.904;2023-08-17T00:26:23;15.53;;;10.03;;
72037;SDS011;59900;50.788;12.904;2023-08-17T00:28:48;13.37;;;9.47;;
72037;SDS011;59900;50.788;12.904;2023-08-17T00:31:13;14.20;;;8.93;;
72037;SDS011;59900;50.788;12.904;2023-08-17T00:33:39;14.30;;;9.70;;
72037;SDS011;59900;50.788;12.904;2023-08-17T00:36:05;15.67;;;9.53;;
72037;SDS011;59900;50.788;12.904;2023-08-17T00:38:30;14.60;;;9.48;;
72037;SDS011;59900;50.788;12.904;2023-08-17T00:40:55;14.10;;;9.70;;
72037;SDS011;59900;50.788;12.904;2023-08-17T00:43:21;12.63;;;8.23;;
72037;SDS011;59900;50.788;12.904;2023-08-17T00:45:46;13.73;;;9.27;;
72037;SDS011;59900;50.788;12.904;2023-08-17T00:48:12;12.90;;;9.20;;
72037;SDS011;59900;50.788;12.904;2023-08-17T00:50:37;13.10;;;8.90;;
72037;SDS011;59900;50.788;12.904;2023-08-17T00:53:04;14.90;;;9.57;;
72037;SDS011;59900;50.788;12.904;2023-08-17T00:55:30;13.93;;;8.80;;
72037;SDS011;59900;50.788;12.904;2023-08-17T00:57:57;13.15;;;9.05;;
72037;SDS011;59900;50.788;12.904;2023-08-17T01:00:24;15.95;;;10.18;;
72037;SDS011;59900;50.788;12.904;2023-08-17T01:02:53;15.03;;;10.03;;
72037;SDS011;59900;50.788;12.904;2023-08-17T01:05:19;18.02;;;9.88;;
72037;SDS011;59900;50.788;12.904;2023-08-17T01:07:45;14.13;;;9.27;;
72037;SDS011;59900;50.788;12.904;2023-08-17T01:10:10;14.60;;;9.00;;
72037;SDS011;59900;50.788;12.904;2023-08-17T01:12:37;13.80;;;9.00;;
72037;SDS011;59900;50.788;12.904;2023-08-17T01:15:08;14.88;;;9.80;;
72037;SDS011;59900;50.788;12.904;2023-08-17T01:17:44;13.23;;;9.85;;
72037;SDS011;59900;50.788;12.904;2023-08-17T01:20:19;15.70;;;9.10;;
72037;SDS011;59900;50.788;12.904;2023-08-17T01:22:48;12.73;;;9.02;;
72037;SDS011;59900;50.788;12.904;2023-08-17T01:25:15;15.68;;;9.55;;
72037;SDS011;59900;50.788;12.904;2023-08-17T01:27:41;13.90;;;8.37;;
72037;SDS011;59900;50.788;12.904;2023-08-17T01:30:13;15.45;;;10.15;;
72037;SDS011;59900;50.788;12.904;2023-08-17T01:32:44;14.88;;;9.88;;
72037;SDS011;59900;50.788;12.904;2023-08-17T01:35:17;14.40;;;9.10;;
72037;SDS011;59900;50.788;12.904;2023-08-17T01:37:50;14.80;;;9.77;;
72037;SDS011;59900;50.788;12.904;2023-08-17T01:40:17;13.95;;;9.32;;
72037;SDS011;59900;50.788;12.904;2023-08-17T01:42:44;14.73;;;9.45;;
72037;SDS011;59900;50.788;12.904;2023-08-17T01:45:10;14.35;;;9.93;;
72037;SDS011;59900;50.788;12.904;2023-08-17T01:47:36;13.17;;;9.17;;
72037;SDS011;59900;50.788;12.904;2023-08-17T01:50:01;15.17;;;9.70;;
72037;SDS011;59900;50.788;12.904;2023-08-17T01:52:27;14.07;;;10.57;;
72037;SDS011;59900;50.788;12.904;2023-08-17T01:54:53;18.15;;;10.88;;
72037;SDS011;59900;50.788;12.904;2023-08-17T01:57:18;14.80;;;10.57;;
72037;SDS011;59900;50.788;12.904;2023-08-17T01:59:43;17.17;;;10.37;;
72037;SDS011;59900;50.788;12.904;2023-08-17T02:02:09;20.70;;;10.13;;
72037;SDS011;59900;50.788;12.904;2023-08-17T02:04:34;14.47;;;10.40;;
72037;SDS011;59900;50.788;12.904;2023-08-17T02:06:59;15.27;;;9.83;;
72037;SDS011;59900;50.788;12.904;2023-08-17T02:09:25;16.80;;;9.83;;
72037;SDS011;59900;50.788;12.904;2023-08-17T02:11:50;14.43;;;10.43;;
72037;SDS011;59900;50.788;12.904;2023-08-17T02:14:15;16.30;;;10.13;;
72037;SDS011;59900;50.788;12.904;2023-08-17T02:16:40;17.53;;;11.00;;
72037;SDS011;59900;50.788;12.904;2023-08-17T02:19:06;15.90;;;10.60;;
72037;SDS011;59900;50.788;12.904;2023-08-17T02:21:31;17.10;;;10.27;;
72037;SDS011;59900;50.788;12.904;2023-08-17T02:23:57;16.50;;;10.30;;
72037;SDS011;59900;50.788;12.904;2023-08-17T02:26:23;14.57;;;9.97;;
72037;SDS011;59900;50.788;12.904;2023-08-17T02:28:48;14.67;;;10.20;;
72037;SDS011;59900;50.788;12.904;2023-08-17T02:31:13;16.10;;;10.17;;
72037;SDS011;59900;50.788;12.904;2023-08-17T02:33:38;16.87;;;11.20;;
72037;SDS011;59900;50.788;12.904;2023-08-17T02:36:04;17.67;;;9.97;;
72037;SDS011;59900;50.788;12.904;2023-08-17T02:38:29;16.92;;;10.85;;
72037;SDS011;59900;50.788;12.904;2023-08-17T02:40:54;16.13;;;10.60;;
72037;SDS011;59900;50.788;12.904;2023-08-17T02:43:20;14.93;;;9.80;;
72037;SDS011;59900;50.788;12.904;2023-08-17T02:45:45;18.93;;;10.93;;
72037;SDS011;59900;50.788;12.904;2023-08-17T02:48:10;15.97;;;9.87;;
72037;SDS011;59900;50.788;12.904;2023-08-17T02:50:36;16.77;;;10.77;;
72037;SDS011;59900;50.788;12.904;2023-08-17T02:53:01;17.17;;;10.30;;
72037;SDS011;59900;50.788;12.904;2023-08-17T02:55:27;15.80;;;10.30;;
72037;SDS011;59900;50.788;12.904;2023-08-17T02:57:52;15.00;;;10.40;;
72037;SDS011;59900;50.788;12.904;2023-08-17T03:00:17;18.50;;;10.30;;
72037;SDS011;59900;50.788;12.904;2023-08-17T03:02:43;15.87;;;10.73;;
72037;SDS011;59900;50.788;12.904;2023-08-17T03:05:08;15.97;;;10.40;;
72037;SDS011;59900;50.788;12.904;2023-08-17T03:07:33;16.37;;;10.40;;
72037;SDS011;59900;50.788;12.904;2023-08-17T03:09:58;16.53;;;11.50;;
72037;SDS011;59900;50.788;12.904;2023-08-17T03:12:24;15.17;;;10.13;;
72037;SDS011;59900;50.788;12.904;2023-08-17T03:14:49;17.37;;;11.40;;
72037;SDS011;59900;50.788;12.904;2023-08-17T03:17:14;16.57;;;11.37;;
72037;SDS011;59900;50.788;12.904;2023-08-17T03:19:40;19.93;;;11.80;;
72037;SDS011;59900;50.788;12.904;2023-08-17T03:22:05;18.83;;;12.48;;
72037;SDS011;59900;50.788;12.904;2023-08-17T03:24:30;18.67;;;12.30;;
72037;SDS011;59900;50.788;12.904;2023-08-17T03:26:56;19.13;;;12.23;;
72037;SDS011;59900;50.788;12.904;2023-08-17T03:29:21;18.67;;;12.37;;
72037;SDS011;59900;50.788;12.904;2023-08-17T03:31:46;20.87;;;11.73;;
72037;SDS011;59900;50.788;12.904;2023-08-17T03:34:12;23.23;;;13.27;;
72037;SDS011;59900;50.788;12.904;2023-08-17T03:36:37;24.03;;;13.50;;
72037;SDS011;59900;50.788;12.904;2023-08-17T03:39:02;22.50;;;13.20;;
72037;SDS011;59900;50.788;12.904;2023-08-17T03:41:27;21.10;;;13.27;;
72037;SDS011;59900;50.788;12.904;2023-08-17T03:43:53;21.27;;;13.73;;
72037;SDS011;59900;50.788;12.904;2023-08-17T03:46:18;22.67;;;13.33;;
72037;SDS011;59900;50.788;12.904;2023-08-17T03:48:43;22.73;;;14.27;;
72037;SDS011;59900;50.788;12.904;2023-08-17T03:51:08;20.40;;;13.10;;
72037;SDS011;59900;50.788;12.904;2023-08-17T03:53:34;25.10;;;14.57;;
72037;SDS011;59900;50.788;12.904;2023-08-17T03:55:59;24.23;;;15.70;;
72037;SDS011;59900;50.788;12.904;2023-08-17T03:58:24;26.07;;;13.97;;
72037;SDS011;59900;50.788;12.904;2023-08-17T04:00:51;26.58;;;14.57;;
72037;SDS011;59900;50.788;12.904;2023-08-17T04:03:18;23.35;;;14.50;;
72037;SDS011;59900;50.788;12.904;2023-08-17T04:05:46;23.05;;;14.00;;
72037;SDS011;59900;50.788;12.904;2023-08-17T04:08:11;24.13;;;14.27;;
72037;SDS011;59900;50.788;12.904;2023-08-17T04:10:36;21.77;;;13.83;;
72037;SDS011;59900;50.788;12.904;2023-08-17T04:13:02;24.10;;;15.07;;
72037;SDS011;59900;50.788;12.904;2023-08-17T04:15:27;23.58;;;14.73;;
72037;SDS011;59900;50.788;12.904;2023-08-17T04:17:53;22.87;;;14.00;;
72037;SDS011;59900;50.788;12.904;2023-08-17T04:20:18;23.03;;;14.37;;
72037;SDS011;59900;50.788;12.904;2023-08-17T04:22:43;20.77;;;13.90;;
72037;SDS011;59900;50.788;12.904;2023-08-17T04:25:09;22.77;;;13.37;;
72037;SDS011;59900;50.788;12.904;2023-08-17T04:27:34;19.50;;;12.70;;
72037;SDS011;59900;50.788;12.904;2023-08-17T04:30:00;19.03;;;12.43;;
72037;SDS011;59900;50.788;12.904;2023-08-17T04:32:25;16.93;;;11.10;;
72037;SDS011;59900;50.788;12.904;2023-08-17T04:34:51;16.15;;;10.55;;
72037;SDS011;59900;50.788;12.904;2023-08-17T04:37:16;15.00;;;11.10;;
72037;SDS011;59900;50.788;12.904;2023-08-17T04:39:41;14.47;;;9.63;;
72037;SDS011;59900;50.788;12.904;2023-08-17T04:42:08;15.02;;;9.90;;
72037;SDS011;59900;50.788;12.904;2023-08-17T04:44:33;14.10;;;9.53;;
72037;SDS011;59900;50.788;12.904;2023-08-17T04:46:59;15.43;;;9.23;;
72037;SDS011;59900;50.788;12.904;2023-08-17T04:49:24;15.03;;;9.37;;
72037;SDS011;59900;50.788;12.904;2023-08-17T04:51:50;14.32;;;8.20;;
72037;SDS011;59900;50.788;12.904;2023-08-17T04:54:15;11.07;;;7.80;;
72037;SDS011;59900;50.788;12.904;2023-08-17T04:56:40;11.73;;;7.47;;
72037;SDS011;59900;50.788;12.904;2023-08-17T04:59:08;11.30;;;7.63;;
72037;SDS011;59900;50.788;12.904;2023-08-17T05:01:33;13.20;;;7.70;;
72037;SDS011;59900;50.788;12.904;2023-08-17T05:03:58;10.93;;;7.23;;
72037;SDS011;59900;50.788;12.904;2023-08-17T05:06:24;12.10;;;7.33;;
72037;SDS011;59900;50.788;12.904;2023-08-17T05:08:49;11.67;;;7.47;;
72037;SDS011;59900;50.788;12.904;2023-08-17T05:11:14;10.50;;;6.80;;
72037;SDS011;59900;50.788;12.904;2023-08-17T05:13:39;10.00;;;6.77;;
72037;SDS011;59900;50.788;12.904;2023-08-17T05:16:05;10.17;;;6.80;;
72037;SDS011;59900;50.788;12.904;2023-08-17T05:18:30;16.10;;;6.00;;
72037;SDS011;59900;50.788;12.904;2023-08-17T05:20:55;9.37;;;5.60;;
72037;SDS011;59900;50.788;12.904;2023-08-17T05:23:21;9.70;;;5.60;;
72037;SDS011;59900;50.788;12.904;2023-08-17T05:25:46;8.57;;;5.30;;
72037;SDS011;59900;50.788;12.904;2023-08-17T05:28:12;9.55;;;4.90;;
72037;SDS011;59900;50.788;12.904;2023-08-17T05:30:38;8.40;;;4.83;;
72037;SDS011;59900;50.788;12.904;2023-08-17T05:33:03;9.50;;;5.87;;
72037;SDS011;59900;50.788;12.904;2023-08-17T05:35:28;8.15;;;5.78;;
72037;SDS011;59900;50.788;12.904;2023-08-17T05:37:54;10.63;;;5.77;;
72037;SDS011;59900;50.788;12.904;2023-08-17T05:40:19;8.57;;;5.23;;
72037;SDS011;59900;50.788;12.904;2023-08-17T05:42:44;9.93;;;5.77;;
72037;SDS011;59900;50.788;12.904;2023-08-17T05:45:09;8.13;;;5.40;;
72037;SDS011;59900;50.788;12.904;2023-08-17T05:47:35;8.90;;;5.60;;
72037;SDS011;59900;50.788;12.904;2023-08-17T05:50:00;9.40;;;5.10;;
72037;SDS011;59900;50.788;12.904;2023-08-17T05:52:26;9.02;;;5.47;;
72037;SDS011;59900;50.788;12.904;2023-08-17T05:54:51;7.30;;;4.53;;
72037;SDS011;59900;50.788;12.904;2023-08-17T05:57:16;10.57;;;7.27;;
72037;SDS011;59900;50.788;12.904;2023-08-17T05:59:41;8.43;;;4.90;;
72037;SDS011;59900;50.788;12.904;2023-08-17T06:02:07;10.30;;;4.80;;
72037;SDS011;59900;50.788;12.904;2023-08-17T06:04:32;7.43;;;4.77;;
72037;SDS011;59900;50.788;12.904;2023-08-17T06:06:57;16.17;;;6.70;;
72037;SDS011;59900;50.788;12.904;2023-08-17T06:09:22;10.43;;;5.60;;
72037;SDS011;59900;50.788;12.904;2023-08-17T06:11:48;8.10;;;4.63;;
72037;SDS011;59900;50.788;12.904;2023-08-17T06:14:13;10.47;;;4.43;;
72037;SDS011;59900;50.788;12.904;2023-08-17T06:16:38;8.30;;;5.00;;
72037;SDS011;59900;50.788;12.904;2023-08-17T06:19:03;8.67;;;4.40;;
72037;SDS011;59900;50.788;12.904;2023-08-17T06:21:29;11.77;;;4.70;;
72037;SDS011;59900;50.788;12.904;2023-08-17T06:23:54;9.33;;;4.73;;
72037;SDS011;59900;50.788;12.904;2023-08-17T06:26:19;9.43;;;4.30;;
72037;SDS011;59900;50.788;12.904;2023-08-17T06:28:44;8.40;;;4.73;;
72037;SDS011;59900;50.788;12.904;2023-08-17T06:31:10;9.13;;;5.07;;
72037;SDS011;59900;50.788;12.904;2023-08-17T06:33:35;10.73;;;5.17;;
72037;SDS011;59900;50.788;12.904;2023-08-17T06:36:00;10.00;;;4.97;;
72037;SDS011;59900;50.788;12.904;2023-08-17T06:38:25;11.13;;;5.23;;
72037;SDS011;59900;50.788;12.904;2023-08-17T06:40:51;8.63;;;5.70;;
72037;SDS011;59900;50.788;12.904;2023-08-17T06:43:17;10.30;;;5.40;;
72037;SDS011;59900;50.788;12.904;2023-08-17T06:45:43;12.00;;;6.00;;
72037;SDS011;59900;50.788;12.904;2023-08-17T06:48:09;13.20;;;6.50;;
72037;SDS011;59900;50.788;12.904;2023-08-17T06:50:34;9.90;;;6.30;;
72037;SDS011;59900;50.788;12.904;2023-08-17T06:53:00;11.73;;;7.43;;
72037;SDS011;59900;50.788;12.904;2023-08-17T06:55:26;11.63;;;6.97;;
72037;SDS011;59900;50.788;12.904;2023-08-17T06:57:51;10.57;;;6.97;;
72037;SDS011;59900;50.788;12.904;2023-08-17T07:00:17;11.20;;;7.20;;
72037;SDS011;59900;50.788;12.904;2023-08-17T07:02:45;10.23;;;6.90;;
72037;SDS011;59900;50.788;12.904;2023-08-17T07:05:11;10.43;;;7.13;;
72037;SDS011;59900;50.788;12.904;2023-08-17T07:07:38;11.18;;;7.32;;
72037;SDS011;59900;50.788;12.904;2023-08-17T07:10:04;14.73;;;9.25;;
72037;SDS011;59900;50.788;12.904;2023-08-17T07:12:32;12.60;;;8.50;;
72037;SDS011;59900;50.788;12.904;2023-08-17T07:14:58;12.30;;;8.60;;
72037;SDS011;59900;50.788;12.904;2023-08-17T07:17:23;13.53;;;8.47;;
72037;SDS011;59900;50.788;12.904;2023-08-17T07:19:48;12.87;;;8.70;;
72037;SDS011;59900;50.788;12.904;2023-08-17T07:22:13;12.43;;;8.97;;
72037;SDS011;59900;50.788;12.904;2023-08-17T07:24:39;13.70;;;8.50;;
72037;SDS011;59900;50.788;12.904;2023-08-17T07:27:04;16.73;;;9.17;;
72037;SDS011;59900;50.788;12.904;2023-08-17T07:29:29;15.30;;;9.03;;
72037;SDS011;59900;50.788;12.904;2023-08-17T07:31:55;15.40;;;9.30;;
72037;SDS011;59900;50.788;12.904;2023-08-17T07:34:23;13.10;;;9.02;;
72037;SDS011;59900;50.788;12.904;2023-08-17T07:36:48;14.57;;;9.97;;
72037;SDS011;59900;50.788;12.904;2023-08-17T07:39:14;15.63;;;10.00;;
72037;SDS011;59900;50.788;12.904;2023-08-17T07:41:39;14.43;;;9.37;;
72037;SDS011;59900;50.788;12.904;2023-08-17T07:44:04;15.93;;;9.30;;
72037;SDS011;59900;50.788;12.904;2023-08-17T07:46:30;18.33;;;10.03;;
72037;SDS011;59900;50.788;12.904;2023-08-17T07:48:55;16.77;;;9.80;;
72037;SDS011;59900;50.788;12.904;2023-08-17T07:51:20;14.53;;;9.73;;
72037;SDS011;59900;50.788;12.904;2023-08-17T07:53:45;14.10;;;9.70;;
72037;SDS011;59900;50.788;12.904;2023-08-17T07:56:11;16.50;;;9.77;;
72037;SDS011;59900;50.788;12.904;2023-08-17T07:58:36;13.33;;;9.27;;
72037;SDS011;59900;50.788;12.904;2023-08-17T08:01:01;17.03;;;9.93;;
72037;SDS011;59900;50.788;12.904;2023-08-17T08:03:27;16.40;;;10.60;;
72037;SDS011;59900;50.788;12.904;2023-08-17T08:05:52;14.00;;;10.23;;
72037;SDS011;59900;50.788;12.904;2023-08-17T08:08:17;15.07;;;10.37;;
72037;SDS011;59900;50.788;12.904;2023-08-17T08:10:42;16.57;;;10.10;;
72037;SDS011;59900;50.788;12.904;2023-08-17T08:13:09;16.75;;;10.23;;
72037;SDS011;59900;50.788;12.904;2023-08-17T08:15:34;17.30;;;10.60;;
72037;SDS011;59900;50.788;12.904;2023-08-17T08:18:00;16.63;;;10.87;;
72037;SDS011;59900;50.788;12.904;2023-08-17T08:20:25;17.13;;;10.20;;
72037;SDS011;59900;50.788;12.904;2023-08-17T08:22:50;16.23;;;11.33;;
72037;SDS011;59900;50.788;12.904;2023-08-17T08:25:15;16.40;;;10.50;;
72037;SDS011;59900;50.788;12.904;2023-08-17T08:27:41;17.10;;;10.93;;
72037;SDS011;59900;50.788;12.904;2023-08-17T08:30:06;16.37;;;10.47;;
72037;SDS011;59900;50.788;12.904;2023-08-17T08:32:32;21.55;;;10.85;;
72037;SDS011;59900;50.788;12.904;2023-08-17T08:34:57;17.77;;;10.80;;
72037;SDS011;59900;50.788;12.904;2023-08-17T08:37:23;18.67;;;10.90;;
72037;SDS011;59900;50.788;12.904;2023-08-17T08:39:52;15.57;;;10.80;;
72037;SDS011;59900;50.788;12.904;2023-08-17T08:42:19;17.85;;;11.80;;
72037;SDS011;59900;50.788;12.904;2023-08-17T08:44:45;16.77;;;10.88;;
72037;SDS011;59900;50.788;12.904;2023-08-17T08:47:11;18.25;;;11.63;;
72037;SDS011;59900;50.788;12.904;2023-08-17T08:49:40;19.73;;;11.80;;
72037;SDS011;59900;50.788;12.904;2023-08-17T08:52:19;17.27;;;12.02;;
72037;SDS011;59900;50.788;12.904;2023-08-17T08:54:49;18.45;;;11.73;;
72037;SDS011;59900;50.788;12.904;2023-08-17T08:57:15;18.75;;;11.90;;
72037;SDS011;59900;50.788;12.904;2023-08-17T08:59:41;21.37;;;12.90;;
72037;SDS011;59900;50.788;12.904;2023-08-17T09:02:12;17.27;;;12.10;;
72037;SDS011;59900;50.788;12.904;2023-08-17T09:04:40;16.35;;;11.43;;
72037;SDS011;59900;50.788;12.904;2023-08-17T09:07:06;22.65;;;12.80;;
72037;SDS011;59900;50.788;12.904;2023-08-17T09:09:33;17.10;;;11.60;;
72037;SDS011;59900;50.788;12.904;2023-08-17T09:12:00;20.77;;;12.13;;
72037;SDS011;59900;50.788;12.904;2023-08-17T09:14:25;17.83;;;12.37;;
72037;SDS011;59900;50.788;12.904;2023-08-17T09:16:50;25.57;;;15.37;;
72037;SDS011;59900;50.788;12.904;2023-08-17T09:19:16;17.17;;;11.93;;
72037;SDS011;59900;50.788;12.904;2023-08-17T09:21:42;18.23;;;11.00;;
72037;SDS011;59900;50.788;12.904;2023-08-17T09:24:07;16.67;;;11.55;;
72037;SDS011;59900;50.788;12.904;2023-08-17T09:26:33;18.30;;;12.43;;
72037;SDS011;59900;50.788;12.904;2023-08-17T09:28:59;25.13;;;16.60;;
72037;SDS011;59900;50.788;12.904;2023-08-17T09:31:25;19.35;;;12.57;;
72037;SDS011;59900;50.788;12.904;2023-08-17T09:33:50;18.23;;;12.63;;
72037;SDS011;59900;50.788;12.904;2023-08-17T09:36:20;17.83;;;12.32;;
72037;SDS011;59900;50.788;12.904;2023-08-17T09:38:47;15.25;;;10.63;;
72037;SDS011;59900;50.788;12.904;2023-08-17T09:41:17;15.98;;;11.10;;
72037;SDS011;59900;50.788;12.904;2023-08-17T09:43:43;15.60;;;11.57;;
72037;SDS011;59900;50.788;12.904;2023-08-17T09:46:08;14.70;;;10.23;;
72037;SDS011;59900;50.788;12.904;2023-08-17T09:48:34;15.83;;;11.60;;
72037;SDS011;59900;50.788;12.904;2023-08-17T09:50:59;17.55;;;11.57;;
72037;SDS011;59900;50.788;12.904;2023-08-17T09:53:26;16.48;;;12.10;;
72037;SDS011;59900;50.788;12.904;2023-08-17T09:55:51;16.03;;;11.43;;
72037;SDS011;59900;50.788;12.904;2023-08-17T09:58:19;16.47;;;10.87;;
72037;SDS011;59900;50.788;12.904;2023-08-17T10:00:48;16.27;;;11.50;;
72037;SDS011;59900;50.788;12.904;2023-08-17T10:03:15;15.23;;;11.23;;
72037;SDS011;59900;50.788;12.904;2023-08-17T10:05:42;14.95;;;11.10;;
72037;SDS011;59900;50.788;12.904;2023-08-17T10:08:10;15.68;;;11.32;;
72037;SDS011;59900;50.788;12.904;2023-08-17T10:10:38;19.30;;;12.05;;
72037;SDS011;59900;50.788;12.904;2023-08-17T10:15:37;16.30;;;11.97;;
72037;SDS011;59900;50.788;12.904;2023-08-17T10:20:42;16.17;;;10.85;;
72037;SDS011;59900;50.788;12.904;2023-08-17T10:23:14;15.50;;;11.32;;
72037;SDS011;59900;50.788;12.904;2023-08-17T10:25:43;22.48;;;12.32;;
72037;SDS011;59900;50.788;12.904;2023-08-17T10:28:09;15.70;;;11.37;;
72037;SDS011;59900;50.788;12.904;2023-08-17T10:30:36;15.80;;;11.70;;
72037;SDS011;59900;50.788;12.904;2023-08-17T10:33:02;16.80;;;11.45;;
72037;SDS011;59900;50.788;12.904;2023-08-17T10:35:29;17.53;;;12.17;;
72037;SDS011;59900;50.788;12.904;2023-08-17T10:37:55;17.50;;;12.07;;
72037;SDS011;59900;50.788;12.904;2023-08-17T10:40:27;17.15;;;11.90;;
72037;SDS011;59900;50.788;12.904;2023-08-17T10:42:54;18.90;;;11.32;;
72037;SDS011;59900;50.788;12.904;2023-08-17T10:45:31;15.73;;;11.37;;
72037;SDS011;59900;50.788;12.904;2023-08-17T10:48:43;16.55;;;11.55;;
72037;SDS011;59900;50.788;12.904;2023-08-17T10:50:58;17.60;;;11.20;;
72037;SDS011;59900;50.788;12.904;2023-08-17T10:53:25;17.50;;;11.52;;
72037;SDS011;59900;50.788;12.904;2023-08-17T10:55:51;15.40;;;11.50;;
72037;SDS011;59900;50.788;12.904;2023-08-17T10:58:22;17.00;;;11.57;;
72037;SDS011;59900;50.788;12.904;2023-08-17T11:00:48;16.60;;;10.80;;
72037;SDS011;59900;50.788;12.904;2023-08-17T11:03:19;15.35;;;10.48;;
72037;SDS011;59900;50.788;12.904;2023-08-17T11:05:47;15.77;;;10.88;;
72037;SDS011;59900;50.788;12.904;2023-08-17T11:11:03;16.13;;;11.35;;
72037;SDS011;59900;50.788;12.904;2023-08-17T11:13:36;14.30;;;10.40;;
72037;SDS011;59900;50.788;12.904;2023-08-17T11:16:03;16.77;;;11.48;;
72037;SDS011;59900;50.788;12.904;2023-08-17T11:18:33;14.95;;;11.25;;
72037;SDS011;59900;50.788;12.904;2023-08-17T11:20:59;16.50;;;12.00;;
72037;SDS011;59900;50.788;12.904;2023-08-17T11:23:28;15.35;;;10.45;;
72037;SDS011;59900;50.788;12.904;2023-08-17T11:25:54;14.38;;;10.75;;
72037;SDS011;59900;50.788;12.904;2023-08-17T11:28:20;17.40;;;10.90;;
72037;SDS011;59900;50.788;12.904;2023-08-17T11:30:46;17.13;;;10.10;;
72037;SDS011;59900;50.788;12.904;2023-08-17T11:33:22;15.77;;;11.63;;
72037;SDS011;59900;50.788;12.904;2023-08-17T11:35:47;17.10;;;11.43;;
72037;SDS011;59900;50.788;12.904;2023-08-17T11:38:15;16.88;;;11.45;;
72037;SDS011;59900;50.788;12.904;2023-08-17T11:40:40;14.83;;;10.53;;
72037;SDS011;59900;50.788;12.904;2023-08-17T11:43:05;17.37;;;12.27;;
72037;SDS011;59900;50.788;12.904;2023-08-17T11:45:31;15.25;;;10.93;;
72037;SDS011;59900;50.788;12.904;2023-08-17T11:47:57;16.50;;;10.97;;
72037;SDS011;59900;50.788;12.904;2023-08-17T11:50:24;16.63;;;11.47;;
72037;SDS011;59900;50.788;12.904;2023-08-17T11:52:50;16.40;;;11.00;;
72037;SDS011;59900;50.788;12.904;2023-08-17T11:55:16;17.30;;;11.20;;
72037;SDS011;59900;50.788;12.904;2023-08-17T11:57:45;16.85;;;10.80;;
72037;SDS011;59900;50.788;12.904;2023-08-17T12:00:16;15.45;;;11.15;;
72037;SDS011;59900;50.788;12.904;2023-08-17T12:02:46;14.63;;;10.65;;
72037;SDS011;59900;50.788;12.904;2023-08-17T12:05:11;15.68;;;10.93;;
72037;SDS011;59900;50.788;12.904;2023-08-17T12:07:37;16.77;;;10.73;;
72037;SDS011;59900;50.788;12.904;2023-08-17T12:10:02;14.50;;;10.90;;
72037;SDS011;59900;50.788;12.904;2023-08-17T12:12:28;14.52;;;10.45;;
72037;SDS011;59900;50.788;12.904;2023-08-17T12:14:54;18.37;;;10.13;;
72037;SDS011;59900;50.788;12.904;2023-08-17T12:17:19;14.77;;;10.70;;
72037;SDS011;59900;50.788;12.904;2023-08-17T12:19:49;14.70;;;10.55;;
72037;SDS011;59900;50.788;12.904;2023-08-17T12:22:18;14.27;;;10.75;;
72037;SDS011;59900;50.788;12.904;2023-08-17T12:24:44;14.87;;;10.63;;
72037;SDS011;59900;50.788;12.904;2023-08-17T12:27:09;14.37;;;10.93;;
72037;SDS011;59900;50.788;12.904;2023-08-17T12:29:50;14.25;;;10.77;;
72037;SDS011;59900;50.788;12.904;2023-08-17T12:32:17;16.23;;;11.20;;
72037;SDS011;59900;50.788;12.904;2023-08-17T12:34:43;15.43;;;10.73;;
72037;SDS011;59900;50.788;12.904;2023-08-17T12:37:09;16.27;;;10.03;;
72037;SDS011;59900;50.788;12.904;2023-08-17T12:39:35;13.93;;;10.80;;
72037;SDS011;59900;50.788;12.904;2023-08-17T12:42:01;16.10;;;11.85;;
72037;SDS011;59900;50.788;12.904;2023-08-17T12:44:26;15.37;;;11.57;;
72037;SDS011;59900;50.788;12.904;2023-08-17T12:46:52;16.47;;;10.57;;
72037;SDS011;59900;50.788;12.904;2023-08-17T12:49:17;16.20;;;11.03;;
72037;SDS011;59900;50.788;12.904;2023-08-17T12:51:42;16.10;;;11.57;;
72037;SDS011;59900;50.788;12.904;2023-08-17T12:54:07;16.52;;;10.48;;
72037;SDS011;59900;50.788;12.904;2023-08-17T12:56:33;17.20;;;11.53;;
72037;SDS011;59900;50.788;12.904;2023-08-17T12:58:59;16.70;;;11.17;;
72037;SDS011;59900;50.788;12.904;2023-08-17T13:01:24;15.10;;;10.47;;
72037;SDS011;59900;50.788;12.904;2023-08-17T13:03:49;12.27;;;8.67;;
72037;SDS011;59900;50.788;12.904;2023-08-17T13:06:14;9.70;;;6.93;;
72037;SDS011;59900;50.788;12.904;2023-08-17T13:08:40;11.00;;;7.00;;
72037;SDS011;59900;50.788;12.904;2023-08-17T13:11:05;10.93;;;6.67;;
72037;SDS011;59900;50.788;12.904;2023-08-17T13:13:30;9.47;;;6.10;;
72037;SDS011;59900;50.788;12.904;2023-08-17T13:15:55;12.20;;;6.50;;
72037;SDS011;59900;50.788;12.904;2023-08-17T13:18:21;8.67;;;6.20;;
72037;SDS011;59900;50.788;12.904;2023-08-17T13:20:46;9.57;;;6.07;;
72037;SDS011;59900;50.788;12.904;2023-08-17T13:23:11;10.63;;;6.13;;
72037;SDS011;59900;50.788;12.904;2023-08-17T13:25:36;13.13;;;6.60;;
72037;SDS011;59900;50.788;12.904;2023-08-17T13:28:02;8.60;;;6.15;;
72037;SDS011;59900;50.788;12.904;2023-08-17T13:30:28;8.60;;;6.00;;
72037;SDS011;59900;50.788;12.904;2023-08-17T13:32:53;8.50;;;6.15;;
72037;SDS011;59900;50.788;12.904;2023-08-17T13:35:18;10.20;;;6.43;;
72037;SDS011;59900;50.788;12.904;2023-08-17T13:37:43;10.40;;;6.67;;
72037;SDS011;59900;50.788;12.904;2023-08-17T13:40:09;11.23;;;6.30;;
72037;SDS011;59900;50.788;12.904;2023-08-17T13:42:35;8.82;;;6.45;;
72037;SDS011;59900;50.788;12.904;2023-08-17T13:45:01;8.80;;;6.23;;
72037;SDS011;59900;50.788;12.904;2023-08-17T13:47:28;10.00;;;6.97;;
72037;SDS011;59900;50.788;12.904;2023-08-17T13:49:53;9.23;;;6.63;;
72037;SDS011;59900;50.788;12.904;2023-08-17T13:52:18;9.13;;;6.67;;
72037;SDS011;59900;50.788;12.904;2023-08-17T13:54:44;11.00;;;6.20;;
72037;SDS011;59900;50.788;12.904;2023-08-17T13:57:10;11.35;;;6.55;;
72037;SDS011;59900;50.788;12.904;2023-08-17T13:59:35;9.93;;;6.70;;
72037;SDS011;59900;50.788;12.904;2023-08-17T14:02:01;10.03;;;6.93;;
72037;SDS011;59900;50.788;12.904;2023-08-17T14:04:26;11.30;;;6.73;;
72037;SDS011;59900;50.788;12.904;2023-08-17T14:06:51;9.73;;;6.73;;
72037;SDS011;59900;50.788;12.904;2023-08-17T14:09:17;9.70;;;7.00;;
72037;SDS011;59900;50.788;12.904;2023-08-17T14:11:42;12.80;;;7.80;;
72037;SDS011;59900;50.788;12.904;2023-08-17T14:14:07;10.20;;;7.45;;
72037;SDS011;59900;50.788;12.904;2023-08-17T14:16:33;9.90;;;6.87;;
72037;SDS011;59900;50.788;12.904;2023-08-17T14:18:58;11.00;;;7.17;;